Main page
METAR-TAF:

METAR-TAF

Airports :

Jersey,

Jersey Airport

latitude: 49-13N, longitude: 002-12W, elevation: 84 m

Current weather observation

The report was made 4 hours and 46 minutes ago, at 21:20 UTC
Wind 17 kt from the West
Temperature 14°C
Humidity 94%
Pressure 998 hPa
Visibility 10 km or more
Broken clouds at a height of 800 ft

METAR: EGJJ 282120Z 28017KT 9999 BKN008 14/13 Q0998 TEMPO SCT008

Time: 03:06 (02:06 UTC)

Forecast

The report was made 3 hours and 8 minutes ago, at 22:58 UTC
Forecast valid from 29 at 00 UTC to 29 at 09 UTC
Wind 13 kt from the West/Northwest
Visibility 10 km or more
Few clouds at a height of 800 ft
Broken clouds at a height of 1500 ft
Temporary
from 29 at 00 UTC to 29 at 03 UTC
Broken clouds at a height of 800 ft
Probability 30% :
Temporary
from 29 at 03 UTC to 29 at 09 UTC
Visibility: 6000 m
Broken clouds at a height of 600 ft
light rain

TAF: EGJJ 282258Z 2900/2909 29013KT 9999 FEW008 BKN015 TEMPO 2900/2903 BKN008 PROB30 TEMPO 2903/2909 6000 -RA BKN006

Weather observations and forecasts of more than 4000 airports (METAR and TAF reports).

The available stations are represented by yellow and red dots on the map.

Hover mouse over dot to see the name of the station.

Then click to see weather observations and forecasts.

To change the map : click on the green buttons with a black cross to zoom in, on the green button with a dash to zoom out, or on the green arrows for adjacent maps.


METAR-TAF: